createdAt,value
2023-04-17T00:01:05.992Z,26.80
2023-04-17T00:03:33.665Z,30.33
2023-04-17T00:06:00.698Z,29.77
2023-04-17T00:08:28.218Z,26.35
2023-04-17T00:11:06.544Z,30.75
2023-04-17T00:13:36.560Z,28.17
2023-04-17T00:16:03.585Z,26.58
2023-04-17T00:18:31.186Z,29.45
2023-04-17T00:20:58.171Z,27.55
2023-04-17T00:23:26.593Z,28.85
2023-04-17T00:25:53.658Z,28.88
2023-04-17T00:28:21.162Z,29.35
2023-04-17T00:30:48.268Z,32.95
2023-04-17T00:33:15.785Z,27.05
2023-04-17T00:35:42.956Z,25.60
2023-04-17T00:38:10.266Z,25.05
2023-04-17T00:40:37.713Z,28.08
2023-04-17T00:43:07.023Z,29.63
2023-04-17T00:45:34.807Z,29.13
2023-04-17T00:48:04.802Z,27.08
2023-04-17T00:50:32.427Z,27.40
2023-04-17T00:53:00.934Z,27.40
2023-04-17T00:55:30.824Z,26.50
2023-04-17T00:57:58.850Z,27.38
2023-04-17T01:00:26.048Z,30.80
2023-04-17T01:02:53.769Z,31.40
2023-04-17T01:05:21.218Z,30.38
2023-04-17T01:07:48.839Z,26.92
2023-04-17T01:10:16.111Z,26.42
2023-04-17T01:12:46.804Z,26.35
2023-04-17T01:15:14.201Z,31.08
2023-04-17T01:17:41.795Z,28.80
2023-04-17T01:20:10.949Z,27.90
2023-04-17T01:22:38.636Z,26.13
2023-04-17T01:25:06.140Z,26.77
2023-04-17T01:27:36.578Z,25.35
2023-04-17T01:30:04.028Z,29.02
2023-04-17T01:35:02.562Z,28.00
2023-04-17T01:37:30.145Z,29.45
2023-04-17T01:39:58.752Z,25.92
2023-04-17T01:42:26.821Z,33.58
2023-04-17T01:44:54.183Z,27.67
2023-04-17T01:47:21.518Z,25.27
2023-04-17T01:49:48.714Z,30.77
2023-04-17T01:52:16.859Z,28.35
2023-04-17T01:54:43.859Z,24.95
2023-04-17T01:57:11.192Z,26.58
2023-04-17T01:59:38.197Z,25.27
2023-04-17T02:02:05.794Z,26.52
2023-04-17T02:04:33.190Z,25.95
2023-04-17T02:07:00.481Z,25.90
2023-04-17T02:09:27.931Z,24.83
2023-04-17T02:11:56.941Z,23.88
2023-04-17T02:14:25.030Z,28.70
2023-04-17T02:16:53.963Z,27.52
2023-04-17T02:19:21.443Z,28.80
2023-04-17T02:21:48.985Z,31.17
2023-04-17T02:24:15.986Z,35.30
2023-04-17T02:26:43.530Z,34.55
2023-04-17T02:29:13.176Z,32.20
2023-04-17T02:31:43.984Z,29.40
2023-04-17T02:34:11.717Z,28.23
2023-04-17T02:36:40.386Z,29.60
2023-04-17T02:39:08.480Z,30.70
2023-04-17T02:41:35.794Z,28.27
2023-04-17T02:44:05.447Z,27.60
2023-04-17T02:46:33.251Z,30.80
2023-04-17T02:49:00.518Z,36.22
2023-04-17T02:51:28.144Z,31.70
2023-04-17T02:53:55.347Z,28.60
2023-04-17T02:56:22.789Z,27.30
2023-04-17T02:58:50.264Z,29.45
2023-04-17T03:01:17.597Z,31.00
2023-04-17T03:03:47.459Z,29.98
2023-04-17T03:06:15.883Z,31.17
2023-04-17T03:08:43.578Z,27.48
2023-04-17T03:11:10.902Z,27.95
2023-04-17T03:13:37.857Z,29.02
2023-04-17T03:16:05.785Z,33.15
2023-04-17T03:18:35.997Z,31.20
2023-04-17T03:21:03.572Z,32.95
2023-04-17T03:23:30.487Z,30.85
2023-04-17T03:25:57.985Z,31.08
2023-04-17T03:28:26.058Z,30.30
2023-04-17T03:30:54.970Z,29.08
2023-04-17T03:33:22.359Z,30.20
2023-04-17T03:35:49.597Z,30.02
2023-04-17T03:38:17.341Z,28.60
2023-04-17T03:40:45.266Z,35.42
2023-04-17T03:43:13.140Z,31.80
2023-04-17T03:45:40.540Z,29.60
2023-04-17T03:48:07.604Z,30.10
2023-04-17T03:50:36.179Z,29.83
2023-04-17T03:53:03.176Z,31.02
2023-04-17T03:55:31.675Z,32.30
2023-04-17T03:57:58.883Z,28.17
2023-04-17T04:00:31.755Z,33.28
2023-04-17T04:03:05.417Z,32.53
2023-04-17T04:05:39.639Z,27.13
2023-04-17T04:08:08.544Z,32.08
2023-04-17T04:10:45.183Z,28.48
2023-04-17T04:13:16.829Z,32.28
2023-04-17T04:15:50.718Z,27.02
2023-04-17T04:18:20.110Z,29.90
2023-04-17T04:20:48.410Z,30.67
2023-04-17T04:23:21.567Z,27.58
2023-04-17T04:25:49.782Z,26.80
2023-04-17T04:28:34.046Z,29.35
2023-04-17T04:31:02.923Z,31.90
2023-04-17T04:33:36.169Z,27.15
2023-04-17T04:36:03.724Z,25.77
2023-04-17T04:38:33.306Z,27.88
2023-04-17T04:41:20.080Z,24.13
2023-04-17T04:43:47.142Z,29.63
2023-04-17T04:46:14.700Z,33.20
2023-04-17T04:48:45.794Z,26.77
2023-04-17T04:51:13.354Z,32.40
2023-04-17T04:53:41.256Z,31.77
2023-04-17T04:56:08.853Z,30.80
2023-04-17T04:58:38.735Z,30.48
2023-04-17T05:01:07.029Z,26.00
2023-04-17T05:03:41.166Z,27.42
2023-04-17T05:06:11.422Z,26.25
2023-04-17T05:08:43.188Z,29.25
2023-04-17T05:11:12.673Z,25.98
2023-04-17T05:13:39.795Z,27.85
2023-04-17T05:16:13.040Z,27.27
2023-04-17T05:18:40.334Z,26.42
2023-04-17T05:21:10.975Z,30.67
2023-04-17T05:23:39.989Z,26.60
2023-04-17T05:26:07.444Z,26.90
2023-04-17T05:28:34.614Z,30.08
2023-04-17T05:31:02.295Z,28.05
2023-04-17T05:33:34.653Z,26.77
2023-04-17T05:36:03.202Z,27.65
2023-04-17T05:38:34.172Z,25.27
2023-04-17T05:41:03.168Z,27.35
2023-04-17T05:43:30.528Z,27.05
2023-04-17T05:45:58.113Z,28.60
2023-04-17T05:48:25.462Z,34.53
2023-04-17T05:50:53.587Z,27.98
2023-04-17T05:53:20.783Z,25.50
2023-04-17T05:55:55.896Z,27.45
2023-04-17T05:58:24.773Z,25.10
2023-04-17T06:00:57.019Z,27.73
2023-04-17T06:03:27.194Z,28.50
2023-04-17T06:06:08.852Z,31.58
2023-04-17T06:08:36.260Z,25.92
2023-04-17T06:11:05.635Z,25.73
2023-04-17T06:13:33.736Z,34.50
2023-04-17T06:16:01.427Z,27.73
2023-04-17T06:18:28.632Z,29.33
2023-04-17T06:20:56.140Z,28.13
2023-04-17T06:23:23.873Z,31.17
2023-04-17T06:25:51.470Z,25.13
2023-04-17T06:28:19.729Z,28.33
2023-04-17T06:30:50.784Z,27.35
2023-04-17T06:33:19.050Z,30.33
2023-04-17T06:35:46.551Z,23.40
2023-04-17T06:38:22.226Z,24.85
2023-04-17T06:40:51.403Z,22.95
2023-04-17T06:43:19.832Z,24.70
2023-04-17T06:45:48.080Z,25.73
2023-04-17T06:48:15.537Z,26.58
2023-04-17T06:50:43.786Z,24.67
2023-04-17T06:53:13.384Z,31.63
2023-04-17T06:55:40.613Z,26.90
2023-04-17T06:58:09.452Z,26.88
2023-04-17T07:00:36.726Z,28.63
2023-04-17T07:03:05.297Z,27.30
2023-04-17T07:05:32.596Z,25.25
2023-04-17T07:07:59.746Z,28.67
2023-04-17T07:10:27.252Z,37.72
2023-04-17T07:12:55.174Z,25.42
2023-04-17T07:15:22.919Z,28.35
2023-04-17T07:17:49.912Z,27.25
2023-04-17T07:20:18.047Z,27.35
2023-04-17T07:22:44.979Z,25.00
2023-04-17T07:25:12.713Z,25.95
2023-04-17T07:27:39.639Z,26.55
2023-04-17T07:30:08.668Z,23.98
2023-04-17T07:32:36.291Z,23.38
2023-04-17T07:35:04.630Z,24.65
2023-04-17T07:37:31.914Z,22.95
2023-04-17T07:39:59.477Z,25.50
2023-04-17T07:42:26.443Z,24.73
2023-04-17T07:44:54.154Z,24.25
2023-04-17T07:47:21.200Z,21.60
2023-04-17T07:49:49.229Z,23.45
2023-04-17T07:52:18.179Z,22.13
2023-04-17T07:54:45.729Z,18.92
2023-04-17T07:57:14.992Z,22.30
2023-04-17T07:59:42.640Z,20.50
2023-04-17T08:02:10.527Z,23.58
2023-04-17T08:04:40.341Z,23.63
2023-04-17T08:07:10.624Z,19.17
2023-04-17T08:09:40.243Z,19.33
2023-04-17T08:12:08.860Z,21.85
2023-04-17T08:14:36.338Z,19.92
2023-04-17T08:17:04.161Z,19.10
2023-04-17T08:19:32.128Z,19.13
2023-04-17T08:22:04.501Z,21.02
2023-04-17T08:24:32.152Z,19.50
2023-04-17T08:26:59.034Z,21.30
2023-04-17T08:29:26.915Z,20.73
2023-04-17T08:32:12.692Z,19.92
2023-04-17T08:34:42.343Z,21.77
2023-04-17T08:37:09.143Z,20.80
2023-04-17T08:40:06.190Z,22.10
2023-04-17T08:42:37.465Z,22.08
2023-04-17T08:45:14.850Z,24.02
2023-04-17T08:47:43.306Z,22.52
2023-04-17T08:50:21.987Z,20.00
2023-04-17T08:52:51.092Z,21.85
2023-04-17T08:55:21.505Z,22.48
2023-04-17T08:57:59.475Z,20.20
2023-04-17T09:00:37.442Z,18.77
2023-04-17T09:03:09.030Z,21.33
2023-04-17T09:05:37.569Z,22.00
2023-04-17T09:08:17.951Z,16.98
2023-04-17T09:10:50.326Z,19.88
2023-04-17T09:13:22.308Z,23.85
2023-04-17T09:16:07.638Z,21.63
2023-04-17T09:18:35.996Z,17.33
2023-04-17T09:21:04.560Z,18.67
2023-04-17T09:23:46.684Z,18.70
2023-04-17T09:26:16.163Z,19.25
2023-04-17T09:29:12.174Z,22.02
2023-04-17T09:31:43.386Z,17.65
2023-04-17T09:34:12.386Z,17.33
2023-04-17T09:36:41.821Z,13.27
2023-04-17T09:39:26.419Z,16.42
2023-04-17T09:42:03.998Z,16.15
2023-04-17T09:44:32.094Z,18.60
2023-04-17T09:47:01.374Z,17.15
2023-04-17T09:49:49.753Z,15.75
2023-04-17T09:52:17.836Z,15.45
2023-04-17T09:54:47.521Z,16.25
2023-04-17T09:57:15.847Z,15.27
2023-04-17T09:59:45.690Z,17.05
2023-04-17T10:02:15.942Z,19.77
2023-04-17T10:04:45.638Z,19.92
2023-04-17T10:07:13.944Z,18.42
2023-04-17T10:09:42.248Z,19.25
2023-04-17T10:12:15.762Z,18.55
2023-04-17T10:14:49.933Z,16.77
2023-04-17T10:17:29.095Z,17.52
2023-04-17T10:19:56.755Z,17.58
2023-04-17T10:22:24.904Z,14.13
2023-04-17T10:25:13.555Z,18.17
2023-04-17T10:27:41.655Z,16.25
2023-04-17T10:30:12.679Z,18.75
2023-04-17T10:32:42.802Z,14.38
2023-04-17T10:35:16.481Z,17.42
2023-04-17T10:38:18.605Z,18.00
2023-04-17T10:40:46.107Z,15.07
2023-04-17T10:43:14.817Z,18.27
2023-04-17T10:46:09.949Z,15.77
2023-04-17T10:48:39.087Z,19.70
2023-04-17T10:51:21.645Z,19.45
2023-04-17T10:53:59.988Z,18.40
2023-04-17T10:56:38.812Z,15.35
2023-04-17T10:59:11.807Z,15.30
2023-04-17T11:01:48.272Z,15.82
2023-04-17T11:04:30.213Z,15.18
2023-04-17T11:09:28.037Z,14.52
2023-04-17T11:11:59.020Z,15.05
2023-04-17T11:14:26.731Z,15.10
2023-04-17T11:16:53.740Z,14.10
2023-04-17T11:19:23.555Z,13.32
2023-04-17T11:21:53.698Z,11.50
2023-04-17T11:24:30.054Z,14.55
2023-04-17T11:27:00.113Z,14.95
2023-04-17T11:29:28.371Z,13.45
2023-04-17T11:31:57.554Z,13.18
2023-04-17T11:34:26.726Z,14.38
2023-04-17T11:36:57.253Z,12.70
2023-04-17T11:39:28.004Z,11.50
2023-04-17T11:41:57.193Z,12.02
2023-04-17T11:44:25.906Z,14.10
2023-04-17T11:46:55.181Z,11.70
2023-04-17T11:49:33.386Z,11.55
2023-04-17T11:52:02.161Z,10.02
2023-04-17T11:54:37.732Z,13.10
2023-04-17T11:57:14.861Z,11.80
2023-04-17T11:59:42.865Z,14.63
2023-04-17T12:02:10.432Z,11.45
2023-04-17T12:04:40.143Z,11.65
2023-04-17T12:07:09.107Z,12.80
2023-04-17T12:09:36.627Z,13.48
2023-04-17T12:12:08.039Z,14.82
2023-04-17T12:14:36.169Z,10.27
2023-04-17T12:17:03.369Z,13.38
2023-04-17T12:19:32.058Z,14.65
2023-04-17T12:21:59.972Z,11.63
2023-04-17T12:24:27.553Z,9.85
2023-04-17T12:26:54.739Z,10.65
2023-04-17T12:29:36.183Z,12.07
2023-04-17T12:32:11.055Z,10.15
2023-04-17T12:34:38.513Z,11.38
2023-04-17T12:37:05.667Z,15.85
2023-04-17T12:39:33.382Z,10.60
2023-04-17T12:42:00.391Z,10.10
2023-04-17T12:44:27.783Z,11.60
2023-04-17T12:46:54.965Z,10.70
2023-04-17T12:49:23.654Z,10.57
2023-04-17T12:51:51.509Z,10.05
2023-04-17T12:54:19.327Z,12.02
2023-04-17T12:56:46.553Z,11.60
2023-04-17T12:59:13.774Z,9.35
2023-04-17T13:01:40.873Z,9.00
2023-04-17T13:04:08.633Z,10.32
2023-04-17T13:06:36.331Z,12.43
2023-04-17T13:09:04.679Z,12.10
2023-04-17T13:11:32.384Z,12.32
2023-04-17T13:13:59.981Z,12.18
2023-04-17T13:16:27.439Z,9.52
2023-04-17T13:18:54.759Z,9.07
2023-04-17T13:21:22.067Z,9.93
2023-04-17T13:23:49.658Z,9.85
2023-04-17T13:26:16.536Z,8.05
2023-04-17T13:28:43.924Z,6.85
2023-04-17T13:31:11.081Z,10.20
2023-04-17T13:33:40.554Z,13.70
2023-04-17T13:36:07.717Z,7.43
2023-04-17T13:38:34.883Z,9.68
2023-04-17T13:41:01.989Z,9.77
2023-04-17T13:43:29.613Z,15.68
2023-04-17T13:45:57.010Z,9.32
2023-04-17T13:48:24.879Z,9.45
2023-04-17T13:50:52.060Z,8.00
2023-04-17T13:53:19.970Z,8.25
2023-04-17T13:55:46.979Z,7.80
2023-04-17T13:58:14.567Z,12.65
2023-04-17T14:00:41.481Z,12.82
2023-04-17T14:03:09.173Z,8.35
2023-04-17T14:05:36.408Z,10.60
2023-04-17T14:08:04.250Z,8.23
2023-04-17T14:10:31.305Z,10.77
2023-04-17T14:12:59.067Z,8.98
2023-04-17T14:15:26.065Z,6.28
2023-04-17T14:17:53.436Z,6.43
2023-04-17T14:20:20.734Z,6.95
2023-04-17T14:22:48.275Z,7.22
2023-04-17T14:25:16.034Z,8.80
2023-04-17T14:27:44.610Z,7.95
2023-04-17T14:30:11.766Z,6.03
2023-04-17T14:32:39.699Z,8.90
2023-04-17T14:35:07.047Z,9.68
2023-04-17T14:37:34.607Z,12.57
2023-04-17T14:40:01.725Z,8.57
2023-04-17T14:42:29.077Z,8.48
2023-04-17T14:44:56.126Z,8.98
2023-04-17T14:47:23.414Z,8.27
2023-04-17T14:49:51.074Z,8.25
2023-04-17T14:52:18.460Z,9.90
2023-04-17T14:54:46.189Z,9.20
2023-04-17T14:57:13.870Z,8.20
2023-04-17T14:59:40.839Z,7.40
2023-04-17T15:02:08.405Z,9.45
2023-04-17T15:04:35.559Z,9.20
2023-04-17T15:07:03.224Z,9.57
2023-04-17T15:09:30.817Z,7.32
2023-04-17T15:11:58.192Z,10.80
2023-04-17T15:14:25.899Z,8.82
2023-04-17T15:16:54.393Z,8.27
2023-04-17T15:19:21.448Z,8.35
2023-04-17T15:21:48.731Z,9.07
2023-04-17T15:24:15.885Z,9.23
2023-04-17T15:26:44.993Z,11.13
2023-04-17T15:29:12.435Z,12.25
2023-04-17T15:31:40.426Z,7.90
2023-04-17T15:34:07.453Z,9.77
2023-04-17T15:36:34.874Z,11.85
2023-04-17T15:39:02.606Z,7.85
2023-04-17T15:41:30.352Z,9.90
2023-04-17T15:43:57.494Z,10.23
2023-04-17T15:46:24.767Z,9.63
2023-04-17T15:49:04.860Z,11.13
2023-04-17T15:51:36.071Z,9.27
2023-04-17T15:54:03.624Z,10.43
2023-04-17T15:56:31.090Z,12.25
2023-04-17T15:58:57.992Z,8.30
2023-04-17T16:01:26.680Z,9.45
2023-04-17T16:03:54.034Z,11.73
2023-04-17T16:06:21.857Z,9.52
2023-04-17T16:08:49.177Z,10.02
2023-04-17T16:11:16.634Z,8.32
2023-04-17T16:13:43.671Z,9.25
2023-04-17T16:16:10.946Z,9.20
2023-04-17T16:18:37.913Z,12.18
2023-04-17T16:21:06.313Z,10.18
2023-04-17T16:23:33.536Z,9.00
2023-04-17T16:26:00.850Z,7.75
2023-04-17T16:28:27.993Z,11.23
2023-04-17T16:30:55.539Z,8.63
2023-04-17T16:33:22.445Z,10.30
2023-04-17T16:35:50.000Z,11.90
2023-04-17T16:38:17.042Z,14.07
2023-04-17T16:40:44.510Z,10.70
2023-04-17T16:43:11.812Z,9.38
2023-04-17T16:45:39.483Z,8.63
2023-04-17T16:48:09.006Z,10.23
2023-04-17T16:50:36.508Z,7.30
2023-04-17T16:53:03.429Z,9.13
2023-04-17T16:55:30.905Z,8.70
2023-04-17T16:58:00.085Z,7.47
2023-04-17T17:00:27.974Z,6.70
2023-04-17T17:02:55.500Z,7.72
2023-04-17T17:05:23.011Z,7.78
2023-04-17T17:07:50.026Z,7.00
2023-04-17T17:10:17.456Z,10.38
2023-04-17T17:12:44.705Z,9.65
2023-04-17T17:15:12.269Z,7.78
2023-04-17T17:17:39.373Z,9.07
2023-04-17T17:20:07.584Z,8.77
2023-04-17T17:22:34.802Z,9.80
2023-04-17T17:25:04.253Z,7.95
2023-04-17T17:27:31.502Z,7.53
2023-04-17T17:30:00.480Z,7.25
2023-04-17T17:32:28.121Z,8.93
2023-04-17T17:34:55.523Z,8.23
2023-04-17T17:37:23.297Z,10.02
2023-04-17T17:39:50.447Z,7.93
2023-04-17T17:42:17.656Z,7.78
2023-04-17T17:44:44.900Z,10.80
2023-04-17T17:47:12.355Z,8.75
2023-04-17T17:49:39.553Z,9.25
2023-04-17T17:52:07.065Z,8.32
2023-04-17T17:54:37.862Z,8.93
2023-04-17T17:57:06.405Z,8.60
2023-04-17T17:59:34.083Z,10.63
2023-04-17T18:02:01.960Z,11.07
2023-04-17T18:04:30.033Z,8.40
2023-04-17T18:06:57.171Z,8.57
2023-04-17T18:09:24.409Z,8.60
2023-04-17T18:11:51.358Z,9.02
2023-04-17T18:14:18.794Z,8.70
2023-04-17T18:16:46.057Z,8.85
2023-04-17T18:19:13.477Z,8.32
2023-04-17T18:21:40.559Z,9.00
2023-04-17T18:24:08.085Z,9.95
2023-04-17T18:26:35.433Z,12.75
2023-04-17T18:29:03.083Z,9.35
2023-04-17T18:31:30.497Z,10.52
2023-04-17T18:34:02.378Z,9.38
2023-04-17T18:36:29.836Z,9.77
2023-04-17T18:38:57.483Z,10.77
2023-04-17T18:41:26.340Z,10.77
2023-04-17T18:43:53.655Z,10.85
2023-04-17T18:46:22.294Z,10.90
2023-04-17T18:48:49.763Z,11.43
2023-04-17T18:51:17.521Z,9.38
2023-04-17T18:53:44.979Z,11.27
2023-04-17T18:56:15.750Z,10.90
2023-04-17T18:58:43.707Z,12.88
2023-04-17T19:01:11.060Z,13.98
2023-04-17T19:03:38.772Z,12.20
2023-04-17T19:06:06.745Z,14.13
2023-04-17T19:08:35.008Z,13.70
2023-04-17T19:11:02.198Z,8.90
2023-04-17T19:13:29.513Z,10.95
2023-04-17T19:15:56.540Z,9.10
2023-04-17T19:18:24.104Z,12.25
2023-04-17T19:20:51.051Z,9.77
2023-04-17T19:23:19.083Z,10.77
2023-04-17T19:25:54.187Z,10.70
2023-04-17T19:28:22.679Z,11.77
2023-04-17T19:30:49.861Z,9.77
2023-04-17T19:33:18.667Z,13.05
2023-04-17T19:35:46.036Z,8.70
2023-04-17T19:38:15.431Z,10.38
2023-04-17T19:40:47.084Z,10.63
2023-04-17T19:43:14.627Z,9.85
2023-04-17T19:45:42.260Z,8.32
2023-04-17T19:48:09.749Z,13.05
2023-04-17T19:50:36.719Z,11.75
2023-04-17T19:53:03.945Z,12.90
2023-04-17T19:55:31.417Z,12.48
2023-04-17T19:57:59.004Z,15.80
2023-04-17T20:00:26.093Z,14.32
2023-04-17T20:02:54.137Z,12.43
2023-04-17T20:05:21.427Z,14.98
2023-04-17T20:07:48.582Z,12.88
2023-04-17T20:10:16.910Z,14.07
2023-04-17T20:12:44.327Z,16.30
2023-04-17T20:15:11.901Z,13.15
2023-04-17T20:17:39.271Z,12.60
2023-04-17T20:20:06.873Z,21.42
2023-04-17T20:22:34.016Z,14.77
2023-04-17T20:25:00.936Z,13.15
2023-04-17T20:27:28.308Z,13.35
2023-04-17T20:29:55.350Z,16.83
2023-04-17T20:32:23.263Z,14.57
2023-04-17T20:34:50.548Z,16.33
2023-04-17T20:37:17.998Z,14.07
2023-04-17T20:39:44.890Z,18.45
2023-04-17T20:42:12.385Z,18.45
2023-04-17T20:44:39.682Z,16.02
2023-04-17T20:47:07.061Z,14.75
2023-04-17T20:49:34.290Z,16.52
2023-04-17T20:52:03.095Z,13.07
2023-04-17T20:54:30.532Z,15.43
2023-04-17T20:56:58.094Z,13.77
2023-04-17T20:59:25.195Z,14.88
2023-04-17T21:01:52.779Z,16.90
2023-04-17T21:04:20.290Z,15.23
2023-04-17T21:06:47.560Z,17.83
2023-04-17T21:09:16.501Z,14.75
2023-04-17T21:11:43.926Z,19.80
2023-04-17T21:14:13.780Z,17.80
2023-04-17T21:16:44.394Z,14.82
2023-04-17T21:19:12.053Z,16.50
2023-04-17T21:21:39.465Z,17.98
2023-04-17T21:24:06.695Z,17.60
2023-04-17T21:26:33.965Z,18.08
2023-04-17T21:29:00.971Z,17.20
2023-04-17T21:31:28.609Z,16.50
2023-04-17T21:33:55.497Z,16.10
2023-04-17T21:36:23.091Z,17.50
2023-04-17T21:38:50.016Z,17.83
2023-04-17T21:41:17.232Z,19.23
2023-04-17T21:43:44.199Z,17.27
2023-04-17T21:46:12.032Z,19.50
2023-04-17T21:48:39.520Z,21.58
2023-04-17T21:51:07.004Z,16.60
2023-04-17T21:53:36.613Z,17.35
2023-04-17T21:56:06.745Z,19.88
2023-04-17T21:58:34.210Z,20.90
2023-04-17T22:01:01.573Z,20.17
2023-04-17T22:03:28.612Z,22.35
2023-04-17T22:05:57.429Z,20.27
2023-04-17T22:08:24.771Z,19.88
2023-04-17T22:10:52.531Z,21.33
2023-04-17T22:13:19.862Z,20.52
2023-04-17T22:15:48.108Z,20.98
2023-04-17T22:18:15.385Z,21.15
2023-04-17T22:20:43.051Z,25.85
2023-04-17T22:23:09.943Z,21.88
2023-04-17T22:25:37.298Z,26.63
2023-04-17T22:28:04.195Z,24.70
2023-04-17T22:30:31.737Z,26.75
2023-04-17T22:32:58.724Z,22.27
2023-04-17T22:35:26.945Z,20.20
2023-04-17T22:37:53.842Z,23.05
2023-04-17T22:44:40.590Z,26.13
2023-04-17T22:47:08.304Z,26.77
2023-04-17T22:49:38.101Z,24.25
2023-04-17T22:52:06.399Z,28.77
2023-04-17T22:54:34.451Z,25.30
2023-04-17T22:57:04.721Z,23.45
2023-04-17T22:59:31.730Z,27.20
2023-04-17T23:01:59.125Z,28.17
2023-04-17T23:04:26.264Z,33.22
2023-04-17T23:06:53.723Z,31.13
2023-04-17T23:10:17.421Z,25.50
2023-04-17T23:13:03.321Z,26.88
2023-04-17T23:15:30.693Z,30.35
2023-04-17T23:17:57.813Z,34.47
2023-04-17T23:20:25.140Z,32.17
2023-04-17T23:22:53.098Z,29.65
2023-04-17T23:25:20.125Z,32.88
2023-04-17T23:27:47.273Z,28.52
2023-04-17T23:30:14.956Z,31.33
2023-04-17T23:32:43.271Z,31.00
2023-04-17T23:35:10.340Z,31.83
2023-04-17T23:37:37.561Z,30.83
2023-04-17T23:40:07.655Z,31.02
2023-04-17T23:42:34.938Z,29.73
2023-04-17T23:45:01.845Z,31.08
2023-04-17T23:47:29.968Z,31.45
2023-04-17T23:49:56.954Z,26.48
2023-04-17T23:52:24.363Z,30.00
2023-04-17T23:54:51.403Z,29.60
2023-04-17T23:57:18.565Z,28.90
2023-04-17T23:59:45.670Z,29.42
